sensor_id;sensor_type;location;lat;lon;timestamp;temperature;humidity
18317;DHT22;9284;52.298;21.164;2023-12-20T00:01:24;6.30;99.90
18317;DHT22;9284;52.298;21.164;2023-12-20T00:03:52;6.30;99.90
18317;DHT22;9284;52.298;21.164;2023-12-20T00:06:21;6.30;99.90
18317;DHT22;9284;52.298;21.164;2023-12-20T00:08:50;6.40;99.90
18317;DHT22;9284;52.298;21.164;2023-12-20T00:11:19;6.30;99.90
18317;DHT22;9284;52.298;21.164;2023-12-20T00:13:47;6.30;99.90
18317;DHT22;9284;52.298;21.164;2023-12-20T00:16:18;6.30;99.90
18317;DHT22;9284;52.298;21.164;2023-12-20T00:18:46;6.30;99.90
18317;DHT22;9284;52.298;21.164;2023-12-20T00:21:15;6.30;99.90
18317;DHT22;9284;52.298;21.164;2023-12-20T00:23:43;6.30;99.90
18317;DHT22;9284;52.298;21.164;2023-12-20T00:26:13;6.30;99.90
18317;DHT22;9284;52.298;21.164;2023-12-20T00:28:41;6.30;99.90
18317;DHT22;9284;52.298;21.164;2023-12-20T00:31:09;6.30;99.90
18317;DHT22;9284;52.298;21.164;2023-12-20T00:33:38;6.30;99.90
18317;DHT22;9284;52.298;21.164;2023-12-20T00:36:10;6.30;99.90
18317;DHT22;9284;52.298;21.164;2023-12-20T00:38:39;6.40;99.90
18317;DHT22;9284;52.298;21.164;2023-12-20T00:41:07;6.30;99.90
18317;DHT22;9284;52.298;21.164;2023-12-20T00:43:37;6.30;99.90
18317;DHT22;9284;52.298;21.164;2023-12-20T00:46:05;6.30;99.90
18317;DHT22;9284;52.298;21.164;2023-12-20T00:48:33;6.20;99.90
18317;DHT22;9284;52.298;21.164;2023-12-20T00:51:02;6.30;99.90
18317;DHT22;9284;52.298;21.164;2023-12-20T00:53:30;6.30;99.90
18317;DHT22;9284;52.298;21.164;2023-12-20T00:55:58;6.30;99.90
18317;DHT22;9284;52.298;21.164;2023-12-20T00:58:27;6.30;99.90
18317;DHT22;9284;52.298;21.164;2023-12-20T01:00:57;6.30;99.90
18317;DHT22;9284;52.298;21.164;2023-12-20T01:03:26;6.40;99.90
18317;DHT22;9284;52.298;21.164;2023-12-20T01:05:54;6.40;99.90
18317;DHT22;9284;52.298;21.164;2023-12-20T01:08:23;6.30;99.90
18317;DHT22;9284;52.298;21.164;2023-12-20T01:10:51;6.30;99.90
18317;DHT22;9284;52.298;21.164;2023-12-20T01:13:19;6.40;99.90
18317;DHT22;9284;52.298;21.164;2023-12-20T01:15:48;6.50;99.90
18317;DHT22;9284;52.298;21.164;2023-12-20T01:18:17;6.40;99.90
18317;DHT22;9284;52.298;21.164;2023-12-20T01:20:46;6.50;99.90
18317;DHT22;9284;52.298;21.164;2023-12-20T01:23:14;6.40;99.90
18317;DHT22;9284;52.298;21.164;2023-12-20T01:25:42;6.40;99.90
18317;DHT22;9284;52.298;21.164;2023-12-20T01:28:11;6.40;99.90
18317;DHT22;9284;52.298;21.164;2023-12-20T01:30:39;6.40;99.90
18317;DHT22;9284;52.298;21.164;2023-12-20T01:33:07;6.40;99.90
18317;DHT22;9284;52.298;21.164;2023-12-20T01:35:37;6.40;99.90
18317;DHT22;9284;52.298;21.164;2023-12-20T01:38:05;6.40;99.90
18317;DHT22;9284;52.298;21.164;2023-12-20T01:40:34;6.60;99.90
18317;DHT22;9284;52.298;21.164;2023-12-20T01:43:06;6.40;99.90
18317;DHT22;9284;52.298;21.164;2023-12-20T01:45:35;6.40;99.90
18317;DHT22;9284;52.298;21.164;2023-12-20T01:48:05;6.40;99.90
18317;DHT22;9284;52.298;21.164;2023-12-20T01:50:37;6.40;99.90
18317;DHT22;9284;52.298;21.164;2023-12-20T01:53:07;6.40;99.90
18317;DHT22;9284;52.298;21.164;2023-12-20T01:55:39;6.40;99.90
18317;DHT22;9284;52.298;21.164;2023-12-20T01:58:09;6.40;99.90
18317;DHT22;9284;52.298;21.164;2023-12-20T02:00:38;6.40;99.90
18317;DHT22;9284;52.298;21.164;2023-12-20T02:03:06;6.40;99.90
18317;DHT22;9284;52.298;21.164;2023-12-20T02:05:37;6.40;99.90
18317;DHT22;9284;52.298;21.164;2023-12-20T02:08:06;6.40;99.90
18317;DHT22;9284;52.298;21.164;2023-12-20T02:10:35;6.40;99.90
18317;DHT22;9284;52.298;21.164;2023-12-20T02:13:03;6.40;99.90
18317;DHT22;9284;52.298;21.164;2023-12-20T02:15:32;6.40;99.90
18317;DHT22;9284;52.298;21.164;2023-12-20T02:18:00;6.40;99.90
18317;DHT22;9284;52.298;21.164;2023-12-20T02:20:29;6.40;99.90
18317;DHT22;9284;52.298;21.164;2023-12-20T02:22:58;6.40;99.90
18317;DHT22;9284;52.298;21.164;2023-12-20T02:25:27;6.40;99.90
18317;DHT22;9284;52.298;21.164;2023-12-20T02:27:55;6.40;99.90
18317;DHT22;9284;52.298;21.164;2023-12-20T02:30:24;6.40;99.90
18317;DHT22;9284;52.298;21.164;2023-12-20T02:32:52;6.40;99.90
18317;DHT22;9284;52.298;21.164;2023-12-20T02:35:21;6.40;99.90
18317;DHT22;9284;52.298;21.164;2023-12-20T02:37:50;6.40;99.90
18317;DHT22;9284;52.298;21.164;2023-12-20T02:40:19;6.40;99.90
18317;DHT22;9284;52.298;21.164;2023-12-20T02:42:48;6.40;99.90
18317;DHT22;9284;52.298;21.164;2023-12-20T02:45:16;6.40;99.90
18317;DHT22;9284;52.298;21.164;2023-12-20T02:47:44;6.40;99.90
18317;DHT22;9284;52.298;21.164;2023-12-20T02:50:13;6.40;99.90
18317;DHT22;9284;52.298;21.164;2023-12-20T02:55:11;6.40;99.90
18317;DHT22;9284;52.298;21.164;2023-12-20T02:57:41;6.30;99.90
18317;DHT22;9284;52.298;21.164;2023-12-20T03:00:10;6.30;99.90
18317;DHT22;9284;52.298;21.164;2023-12-20T03:02:39;6.30;99.90
18317;DHT22;9284;52.298;21.164;2023-12-20T03:05:08;6.30;99.90
18317;DHT22;9284;52.298;21.164;2023-12-20T03:07:37;6.30;99.90
18317;DHT22;9284;52.298;21.164;2023-12-20T03:10:06;6.30;99.90
18317;DHT22;9284;52.298;21.164;2023-12-20T03:12:47;6.30;99.90
18317;DHT22;9284;52.298;21.164;2023-12-20T03:15:17;6.30;99.90
18317;DHT22;9284;52.298;21.164;2023-12-20T03:17:46;6.30;99.90
18317;DHT22;9284;52.298;21.164;2023-12-20T03:20:14;6.30;99.90
18317;DHT22;9284;52.298;21.164;2023-12-20T03:22:43;6.30;99.90
18317;DHT22;9284;52.298;21.164;2023-12-20T03:25:11;6.30;99.90
18317;DHT22;9284;52.298;21.164;2023-12-20T03:27:39;6.40;99.90
18317;DHT22;9284;52.298;21.164;2023-12-20T03:30:10;6.30;99.90
18317;DHT22;9284;52.298;21.164;2023-12-20T03:32:38;6.30;99.90
18317;DHT22;9284;52.298;21.164;2023-12-20T03:35:07;6.30;99.90
18317;DHT22;9284;52.298;21.164;2023-12-20T03:37:35;6.30;99.90
18317;DHT22;9284;52.298;21.164;2023-12-20T03:40:04;6.30;99.90
18317;DHT22;9284;52.298;21.164;2023-12-20T03:42:33;6.30;99.90
18317;DHT22;9284;52.298;21.164;2023-12-20T03:45:01;6.30;99.90
18317;DHT22;9284;52.298;21.164;2023-12-20T03:47:31;6.30;99.90
18317;DHT22;9284;52.298;21.164;2023-12-20T03:49:59;6.30;99.90
18317;DHT22;9284;52.298;21.164;2023-12-20T03:52:28;6.30;99.90
18317;DHT22;9284;52.298;21.164;2023-12-20T03:54:56;6.30;99.90
18317;DHT22;9284;52.298;21.164;2023-12-20T03:57:24;6.30;99.90
18317;DHT22;9284;52.298;21.164;2023-12-20T03:59:52;6.30;99.90
18317;DHT22;9284;52.298;21.164;2023-12-20T04:02:20;6.30;99.90
18317;DHT22;9284;52.298;21.164;2023-12-20T04:04:50;6.40;99.90
18317;DHT22;9284;52.298;21.164;2023-12-20T04:07:20;6.40;99.90
18317;DHT22;9284;52.298;21.164;2023-12-20T04:09:48;6.30;99.90
18317;DHT22;9284;52.298;21.164;2023-12-20T04:12:16;6.40;99.90
18317;DHT22;9284;52.298;21.164;2023-12-20T04:14:45;6.40;99.90
18317;DHT22;9284;52.298;21.164;2023-12-20T04:17:13;6.40;99.90
18317;DHT22;9284;52.298;21.164;2023-12-20T04:19:42;6.30;99.90
18317;DHT22;9284;52.298;21.164;2023-12-20T04:22:12;6.30;99.90
18317;DHT22;9284;52.298;21.164;2023-12-20T04:24:41;6.40;99.90
18317;DHT22;9284;52.298;21.164;2023-12-20T04:27:10;6.40;99.90
18317;DHT22;9284;52.298;21.164;2023-12-20T04:29:38;6.40;99.90
18317;DHT22;9284;52.298;21.164;2023-12-20T04:32:06;6.40;99.90
18317;DHT22;9284;52.298;21.164;2023-12-20T04:34:35;6.40;99.90
18317;DHT22;9284;52.298;21.164;2023-12-20T04:37:04;6.40;99.90
18317;DHT22;9284;52.298;21.164;2023-12-20T04:39:33;6.40;99.90
18317;DHT22;9284;52.298;21.164;2023-12-20T04:42:02;6.50;99.90
18317;DHT22;9284;52.298;21.164;2023-12-20T04:44:30;6.40;99.90
18317;DHT22;9284;52.298;21.164;2023-12-20T04:46:59;6.50;99.90
18317;DHT22;9284;52.298;21.164;2023-12-20T04:49:28;6.50;99.90
18317;DHT22;9284;52.298;21.164;2023-12-20T04:51:56;6.40;99.90
18317;DHT22;9284;52.298;21.164;2023-12-20T04:54:25;6.40;99.90
18317;DHT22;9284;52.298;21.164;2023-12-20T04:56:54;6.40;99.90
18317;DHT22;9284;52.298;21.164;2023-12-20T04:59:22;6.40;99.90
18317;DHT22;9284;52.298;21.164;2023-12-20T05:01:51;6.40;99.90
18317;DHT22;9284;52.298;21.164;2023-12-20T05:04:19;6.40;99.90
18317;DHT22;9284;52.298;21.164;2023-12-20T05:06:47;6.40;99.90
18317;DHT22;9284;52.298;21.164;2023-12-20T05:09:17;6.40;99.90
18317;DHT22;9284;52.298;21.164;2023-12-20T05:11:45;6.50;99.90
18317;DHT22;9284;52.298;21.164;2023-12-20T05:14:14;6.40;99.90
18317;DHT22;9284;52.298;21.164;2023-12-20T05:16:43;6.50;99.90
18317;DHT22;9284;52.298;21.164;2023-12-20T05:19:12;6.40;99.90
18317;DHT22;9284;52.298;21.164;2023-12-20T05:21:41;6.40;99.90
18317;DHT22;9284;52.298;21.164;2023-12-20T05:24:09;6.40;99.90
18317;DHT22;9284;52.298;21.164;2023-12-20T05:26:37;6.40;99.90
18317;DHT22;9284;52.298;21.164;2023-12-20T05:29:06;6.40;99.90
18317;DHT22;9284;52.298;21.164;2023-12-20T05:31:35;6.40;99.90
18317;DHT22;9284;52.298;21.164;2023-12-20T05:34:04;6.40;99.90
18317;DHT22;9284;52.298;21.164;2023-12-20T05:36:32;6.30;99.90
18317;DHT22;9284;52.298;21.164;2023-12-20T05:39:00;6.30;99.90
18317;DHT22;9284;52.298;21.164;2023-12-20T05:41:30;6.40;99.90
18317;DHT22;9284;52.298;21.164;2023-12-20T05:43:58;6.30;99.90
18317;DHT22;9284;52.298;21.164;2023-12-20T05:46:27;6.30;99.90
18317;DHT22;9284;52.298;21.164;2023-12-20T05:48:56;6.40;99.90
18317;DHT22;9284;52.298;21.164;2023-12-20T05:51:25;6.30;99.90
18317;DHT22;9284;52.298;21.164;2023-12-20T05:53:53;6.30;99.90
18317;DHT22;9284;52.298;21.164;2023-12-20T05:56:21;6.30;99.90
18317;DHT22;9284;52.298;21.164;2023-12-20T05:58:50;6.30;99.90
18317;DHT22;9284;52.298;21.164;2023-12-20T06:01:18;6.30;99.90
18317;DHT22;9284;52.298;21.164;2023-12-20T06:03:47;6.30;99.90
18317;DHT22;9284;52.298;21.164;2023-12-20T06:06:16;6.30;99.90
18317;DHT22;9284;52.298;21.164;2023-12-20T06:08:45;6.30;99.90
18317;DHT22;9284;52.298;21.164;2023-12-20T06:11:13;6.30;99.90
18317;DHT22;9284;52.298;21.164;2023-12-20T06:13:42;6.30;99.90
18317;DHT22;9284;52.298;21.164;2023-12-20T06:16:10;6.30;99.90
18317;DHT22;9284;52.298;21.164;2023-12-20T06:18:38;6.30;99.90
18317;DHT22;9284;52.298;21.164;2023-12-20T06:21:07;6.50;99.90
18317;DHT22;9284;52.298;21.164;2023-12-20T06:23:41;6.40;99.90
18317;DHT22;9284;52.298;21.164;2023-12-20T06:26:09;6.30;99.90
18317;DHT22;9284;52.298;21.164;2023-12-20T06:28:37;6.30;99.90
18317;DHT22;9284;52.298;21.164;2023-12-20T06:31:08;6.30;99.90
18317;DHT22;9284;52.298;21.164;2023-12-20T06:33:36;6.40;99.90
18317;DHT22;9284;52.298;21.164;2023-12-20T06:36:07;6.40;99.90
18317;DHT22;9284;52.298;21.164;2023-12-20T06:38:36;6.30;99.90
18317;DHT22;9284;52.298;21.164;2023-12-20T06:41:05;6.40;99.90
18317;DHT22;9284;52.298;21.164;2023-12-20T06:43:33;6.40;99.90
18317;DHT22;9284;52.298;21.164;2023-12-20T06:46:15;6.40;99.90
18317;DHT22;9284;52.298;21.164;2023-12-20T06:48:44;6.40;99.90
18317;DHT22;9284;52.298;21.164;2023-12-20T06:51:14;6.40;99.90
18317;DHT22;9284;52.298;21.164;2023-12-20T06:53:43;6.40;99.90
18317;DHT22;9284;52.298;21.164;2023-12-20T06:56:13;6.40;99.90
18317;DHT22;9284;52.298;21.164;2023-12-20T06:58:45;6.40;99.90
18317;DHT22;9284;52.298;21.164;2023-12-20T07:01:15;6.40;99.90
18317;DHT22;9284;52.298;21.164;2023-12-20T07:03:43;6.40;99.90
18317;DHT22;9284;52.298;21.164;2023-12-20T07:06:12;6.40;99.90
18317;DHT22;9284;52.298;21.164;2023-12-20T07:08:40;6.40;99.90
18317;DHT22;9284;52.298;21.164;2023-12-20T07:11:09;6.40;99.90
18317;DHT22;9284;52.298;21.164;2023-12-20T07:13:38;6.40;99.90
18317;DHT22;9284;52.298;21.164;2023-12-20T07:16:07;6.40;99.90
18317;DHT22;9284;52.298;21.164;2023-12-20T07:18:35;6.40;99.90
18317;DHT22;9284;52.298;21.164;2023-12-20T07:21:04;6.40;99.90
18317;DHT22;9284;52.298;21.164;2023-12-20T07:23:32;6.40;99.90
18317;DHT22;9284;52.298;21.164;2023-12-20T07:26:00;6.40;99.90
18317;DHT22;9284;52.298;21.164;2023-12-20T07:28:29;6.40;99.90
18317;DHT22;9284;52.298;21.164;2023-12-20T07:30:58;6.40;99.90
18317;DHT22;9284;52.298;21.164;2023-12-20T07:33:26;6.50;99.90
18317;DHT22;9284;52.298;21.164;2023-12-20T07:35:56;6.50;99.90
18317;DHT22;9284;52.298;21.164;2023-12-20T07:38:25;6.40;99.90
18317;DHT22;9284;52.298;21.164;2023-12-20T07:40:53;6.40;99.90
18317;DHT22;9284;52.298;21.164;2023-12-20T07:43:21;6.40;99.90
18317;DHT22;9284;52.298;21.164;2023-12-20T07:45:49;6.40;99.90
18317;DHT22;9284;52.298;21.164;2023-12-20T07:48:19;6.40;99.90
18317;DHT22;9284;52.298;21.164;2023-12-20T07:50:47;6.40;99.90
18317;DHT22;9284;52.298;21.164;2023-12-20T07:53:16;6.40;99.90
18317;DHT22;9284;52.298;21.164;2023-12-20T07:55:44;6.40;99.90
18317;DHT22;9284;52.298;21.164;2023-12-20T07:58:12;6.50;99.90
18317;DHT22;9284;52.298;21.164;2023-12-20T08:00:40;6.50;99.90
18317;DHT22;9284;52.298;21.164;2023-12-20T08:03:09;6.50;99.90
18317;DHT22;9284;52.298;21.164;2023-12-20T08:05:38;6.50;99.90
18317;DHT22;9284;52.298;21.164;2023-12-20T08:08:07;6.40;99.90
18317;DHT22;9284;52.298;21.164;2023-12-20T08:10:35;6.50;99.90
18317;DHT22;9284;52.298;21.164;2023-12-20T08:13:04;6.50;99.90
18317;DHT22;9284;52.298;21.164;2023-12-20T08:15:34;6.50;99.90
18317;DHT22;9284;52.298;21.164;2023-12-20T08:18:03;6.50;99.90
18317;DHT22;9284;52.298;21.164;2023-12-20T08:20:31;6.50;99.90
18317;DHT22;9284;52.298;21.164;2023-12-20T08:23:08;6.60;99.90
18317;DHT22;9284;52.298;21.164;2023-12-20T08:25:36;6.40;99.90
18317;DHT22;9284;52.298;21.164;2023-12-20T08:28:05;6.60;99.90
18317;DHT22;9284;52.298;21.164;2023-12-20T08:30:33;6.60;99.90
18317;DHT22;9284;52.298;21.164;2023-12-20T08:33:01;6.60;99.90
18317;DHT22;9284;52.298;21.164;2023-12-20T08:35:30;6.60;99.90
18317;DHT22;9284;52.298;21.164;2023-12-20T08:37:58;6.60;99.90
18317;DHT22;9284;52.298;21.164;2023-12-20T08:40:28;6.60;99.90
18317;DHT22;9284;52.298;21.164;2023-12-20T08:42:57;6.60;99.90
18317;DHT22;9284;52.298;21.164;2023-12-20T08:45:25;6.60;99.90
18317;DHT22;9284;52.298;21.164;2023-12-20T08:47:53;6.60;99.90
18317;DHT22;9284;52.298;21.164;2023-12-20T08:50:25;6.60;99.90
18317;DHT22;9284;52.298;21.164;2023-12-20T08:52:54;6.60;99.90
18317;DHT22;9284;52.298;21.164;2023-12-20T08:55:22;6.60;99.90
18317;DHT22;9284;52.298;21.164;2023-12-20T08:57:52;6.60;99.90
18317;DHT22;9284;52.298;21.164;2023-12-20T09:00:20;6.60;99.90
18317;DHT22;9284;52.298;21.164;2023-12-20T09:02:51;6.70;99.90
18317;DHT22;9284;52.298;21.164;2023-12-20T09:05:19;6.60;99.90
18317;DHT22;9284;52.298;21.164;2023-12-20T09:07:48;6.60;99.90
18317;DHT22;9284;52.298;21.164;2023-12-20T09:10:16;6.70;99.90
18317;DHT22;9284;52.298;21.164;2023-12-20T09:12:50;6.70;99.90
18317;DHT22;9284;52.298;21.164;2023-12-20T09:15:19;6.70;99.90
18317;DHT22;9284;52.298;21.164;2023-12-20T09:17:48;6.70;99.90
18317;DHT22;9284;52.298;21.164;2023-12-20T09:20:17;6.60;99.90
18317;DHT22;9284;52.298;21.164;2023-12-20T09:22:45;6.70;99.90
18317;DHT22;9284;52.298;21.164;2023-12-20T09:25:14;6.70;99.90
18317;DHT22;9284;52.298;21.164;2023-12-20T09:27:44;6.70;99.90
18317;DHT22;9284;52.298;21.164;2023-12-20T09:30:14;6.70;99.90
18317;DHT22;9284;52.298;21.164;2023-12-20T09:32:54;6.70;99.90
18317;DHT22;9284;52.298;21.164;2023-12-20T09:35:23;6.70;99.90
18317;DHT22;9284;52.298;21.164;2023-12-20T09:37:53;6.70;99.90
18317;DHT22;9284;52.298;21.164;2023-12-20T09:40:22;6.70;99.90
18317;DHT22;9284;52.298;21.164;2023-12-20T09:42:57;6.70;99.90
18317;DHT22;9284;52.298;21.164;2023-12-20T09:45:25;6.70;99.90
18317;DHT22;9284;52.298;21.164;2023-12-20T09:47:56;6.70;99.90
18317;DHT22;9284;52.298;21.164;2023-12-20T09:50:26;6.80;99.90
18317;DHT22;9284;52.298;21.164;2023-12-20T09:52:55;6.80;99.90
18317;DHT22;9284;52.298;21.164;2023-12-20T09:55:27;6.70;99.90
18317;DHT22;9284;52.298;21.164;2023-12-20T09:57:56;6.70;99.90
18317;DHT22;9284;52.298;21.164;2023-12-20T10:00:25;6.70;99.90
18317;DHT22;9284;52.298;21.164;2023-12-20T10:02:58;6.70;99.90
18317;DHT22;9284;52.298;21.164;2023-12-20T10:05:28;6.70;99.90
18317;DHT22;9284;52.298;21.164;2023-12-20T10:07:57;6.70;99.90
18317;DHT22;9284;52.298;21.164;2023-12-20T10:10:26;6.70;99.90
18317;DHT22;9284;52.298;21.164;2023-12-20T10:13:12;6.70;99.90
18317;DHT22;9284;52.298;21.164;2023-12-20T10:15:41;6.70;99.90
18317;DHT22;9284;52.298;21.164;2023-12-20T10:18:12;6.70;99.90
18317;DHT22;9284;52.298;21.164;2023-12-20T10:20:41;6.70;99.90
18317;DHT22;9284;52.298;21.164;2023-12-20T10:23:11;6.70;99.90
18317;DHT22;9284;52.298;21.164;2023-12-20T10:25:40;6.70;99.90
18317;DHT22;9284;52.298;21.164;2023-12-20T10:28:10;6.70;99.90
18317;DHT22;9284;52.298;21.164;2023-12-20T10:30:40;6.70;99.90
18317;DHT22;9284;52.298;21.164;2023-12-20T10:33:11;6.80;99.90
18317;DHT22;9284;52.298;21.164;2023-12-20T10:35:40;6.70;99.90
18317;DHT22;9284;52.298;21.164;2023-12-20T10:38:14;6.70;99.90
18317;DHT22;9284;52.298;21.164;2023-12-20T10:40:45;6.70;99.90
18317;DHT22;9284;52.298;21.164;2023-12-20T10:43:15;6.70;99.90
18317;DHT22;9284;52.298;21.164;2023-12-20T10:45:43;6.80;99.90
18317;DHT22;9284;52.298;21.164;2023-12-20T10:48:13;6.70;99.90
18317;DHT22;9284;52.298;21.164;2023-12-20T10:50:41;6.80;99.90
18317;DHT22;9284;52.298;21.164;2023-12-20T10:53:12;6.70;99.90
18317;DHT22;9284;52.298;21.164;2023-12-20T10:55:41;6.80;99.90
18317;DHT22;9284;52.298;21.164;2023-12-20T10:58:11;6.70;99.90
18317;DHT22;9284;52.298;21.164;2023-12-20T11:00:40;6.70;99.90
18317;DHT22;9284;52.298;21.164;2023-12-20T11:03:13;6.70;99.90
18317;DHT22;9284;52.298;21.164;2023-12-20T11:05:44;6.70;99.90
18317;DHT22;9284;52.298;21.164;2023-12-20T11:08:20;6.70;99.90
18317;DHT22;9284;52.298;21.164;2023-12-20T11:10:58;6.70;99.90
18317;DHT22;9284;52.298;21.164;2023-12-20T11:13:31;6.70;99.90
18317;DHT22;9284;52.298;21.164;2023-12-20T11:16:01;6.60;99.90
18317;DHT22;9284;52.298;21.164;2023-12-20T11:18:32;6.70;99.90
18317;DHT22;9284;52.298;21.164;2023-12-20T11:21:00;6.70;99.90
18317;DHT22;9284;52.298;21.164;2023-12-20T11:23:30;6.80;99.90
18317;DHT22;9284;52.298;21.164;2023-12-20T11:26:00;6.80;99.90
18317;DHT22;9284;52.298;21.164;2023-12-20T11:28:29;6.80;99.90
18317;DHT22;9284;52.298;21.164;2023-12-20T11:30:58;6.70;99.90
18317;DHT22;9284;52.298;21.164;2023-12-20T11:33:35;6.80;99.90
18317;DHT22;9284;52.298;21.164;2023-12-20T11:36:12;6.80;99.90
18317;DHT22;9284;52.298;21.164;2023-12-20T11:38:54;6.70;99.90
18317;DHT22;9284;52.298;21.164;2023-12-20T11:41:23;6.80;99.90
18317;DHT22;9284;52.298;21.164;2023-12-20T11:43:53;6.80;99.90
18317;DHT22;9284;52.298;21.164;2023-12-20T11:46:22;6.70;99.90
18317;DHT22;9284;52.298;21.164;2023-12-20T11:48:52;6.70;99.90
18317;DHT22;9284;52.298;21.164;2023-12-20T11:51:20;6.70;99.90
18317;DHT22;9284;52.298;21.164;2023-12-20T11:53:51;6.70;99.90
18317;DHT22;9284;52.298;21.164;2023-12-20T11:56:20;6.70;99.90
18317;DHT22;9284;52.298;21.164;2023-12-20T11:58:48;6.70;99.90
18317;DHT22;9284;52.298;21.164;2023-12-20T12:01:19;6.80;99.90
18317;DHT22;9284;52.298;21.164;2023-12-20T12:03:48;6.70;99.90
18317;DHT22;9284;52.298;21.164;2023-12-20T12:06:18;6.70;99.90
18317;DHT22;9284;52.298;21.164;2023-12-20T12:08:46;6.70;99.90
18317;DHT22;9284;52.298;21.164;2023-12-20T12:11:14;6.70;99.90
18317;DHT22;9284;52.298;21.164;2023-12-20T12:13:43;6.70;99.90
18317;DHT22;9284;52.298;21.164;2023-12-20T12:16:11;6.70;99.90
18317;DHT22;9284;52.298;21.164;2023-12-20T12:18:39;6.70;99.90
18317;DHT22;9284;52.298;21.164;2023-12-20T12:21:08;6.60;99.90
18317;DHT22;9284;52.298;21.164;2023-12-20T12:23:46;6.60;99.90
18317;DHT22;9284;52.298;21.164;2023-12-20T12:26:14;6.60;99.90
18317;DHT22;9284;52.298;21.164;2023-12-20T12:28:43;6.60;99.90
18317;DHT22;9284;52.298;21.164;2023-12-20T12:31:13;6.70;99.90
18317;DHT22;9284;52.298;21.164;2023-12-20T12:33:43;6.60;99.90
18317;DHT22;9284;52.298;21.164;2023-12-20T12:36:12;6.60;99.90
18317;DHT22;9284;52.298;21.164;2023-12-20T12:38:43;6.60;99.90
18317;DHT22;9284;52.298;21.164;2023-12-20T12:41:14;6.50;99.90
18317;DHT22;9284;52.298;21.164;2023-12-20T12:43:43;6.60;99.90
18317;DHT22;9284;52.298;21.164;2023-12-20T12:46:11;6.40;99.90
18317;DHT22;9284;52.298;21.164;2023-12-20T12:48:40;6.30;99.90
18317;DHT22;9284;52.298;21.164;2023-12-20T12:51:11;6.30;99.90
18317;DHT22;9284;52.298;21.164;2023-12-20T12:53:41;6.30;99.90
18317;DHT22;9284;52.298;21.164;2023-12-20T12:56:09;6.30;99.90
18317;DHT22;9284;52.298;21.164;2023-12-20T12:58:39;6.30;91.50
18317;DHT22;9284;52.298;21.164;2023-12-20T13:01:07;6.30;84.30
18317;DHT22;9284;52.298;21.164;2023-12-20T13:03:36;6.30;82.90
18317;DHT22;9284;52.298;21.164;2023-12-20T13:06:05;6.30;71.30
18317;DHT22;9284;52.298;21.164;2023-12-20T13:08:35;6.20;63.30
18317;DHT22;9284;52.298;21.164;2023-12-20T13:11:04;6.20;55.80
18317;DHT22;9284;52.298;21.164;2023-12-20T13:13:32;6.20;44.70
18317;DHT22;9284;52.298;21.164;2023-12-20T13:16:03;6.20;37.20
18317;DHT22;9284;52.298;21.164;2023-12-20T13:18:31;6.20;38.70
18317;DHT22;9284;52.298;21.164;2023-12-20T13:20:59;6.20;31.00
18317;DHT22;9284;52.298;21.164;2023-12-20T13:23:28;6.20;36.30
18317;DHT22;9284;52.298;21.164;2023-12-20T13:25:56;6.10;33.40
18317;DHT22;9284;52.298;21.164;2023-12-20T13:28:24;6.10;28.20
18317;DHT22;9284;52.298;21.164;2023-12-20T13:30:53;6.10;26.50
18317;DHT22;9284;52.298;21.164;2023-12-20T13:33:23;6.10;24.40
18317;DHT22;9284;52.298;21.164;2023-12-20T13:35:51;6.10;20.80
18317;DHT22;9284;52.298;21.164;2023-12-20T13:38:20;6.10;20.20
18317;DHT22;9284;52.298;21.164;2023-12-20T13:40:48;6.10;29.10
18317;DHT22;9284;52.298;21.164;2023-12-20T13:43:17;6.10;42.50
18317;DHT22;9284;52.298;21.164;2023-12-20T13:45:48;6.10;46.70
18317;DHT22;9284;52.298;21.164;2023-12-20T13:48:17;6.20;45.20
18317;DHT22;9284;52.298;21.164;2023-12-20T13:50:47;6.10;45.00
18317;DHT22;9284;52.298;21.164;2023-12-20T13:53:16;6.10;47.20
18317;DHT22;9284;52.298;21.164;2023-12-20T13:55:44;6.10;53.00
18317;DHT22;9284;52.298;21.164;2023-12-20T13:58:12;6.10;46.90
18317;DHT22;9284;52.298;21.164;2023-12-20T14:00:40;6.00;41.40
18317;DHT22;9284;52.298;21.164;2023-12-20T14:03:09;5.90;28.00
18317;DHT22;9284;52.298;21.164;2023-12-20T14:05:37;5.90;21.70
18317;DHT22;9284;52.298;21.164;2023-12-20T14:08:07;5.90;21.00
18317;DHT22;9284;52.298;21.164;2023-12-20T14:10:36;5.90;21.40
18317;DHT22;9284;52.298;21.164;2023-12-20T14:13:05;5.90;28.10
18317;DHT22;9284;52.298;21.164;2023-12-20T14:15:34;5.90;36.10
18317;DHT22;9284;52.298;21.164;2023-12-20T14:18:05;5.80;42.00
18317;DHT22;9284;52.298;21.164;2023-12-20T14:20:40;5.90;47.50
18317;DHT22;9284;52.298;21.164;2023-12-20T14:23:15;5.80;52.80
18317;DHT22;9284;52.298;21.164;2023-12-20T14:25:44;5.90;58.50
18317;DHT22;9284;52.298;21.164;2023-12-20T14:28:19;5.90;63.50
18317;DHT22;9284;52.298;21.164;2023-12-20T14:30:47;5.80;67.60
18317;DHT22;9284;52.298;21.164;2023-12-20T14:33:17;5.90;67.40
18317;DHT22;9284;52.298;21.164;2023-12-20T14:35:48;5.90;66.90
18317;DHT22;9284;52.298;21.164;2023-12-20T14:38:17;5.90;70.60
18317;DHT22;9284;52.298;21.164;2023-12-20T14:40:46;5.80;67.50
18317;DHT22;9284;52.298;21.164;2023-12-20T14:43:14;5.80;59.90
18317;DHT22;9284;52.298;21.164;2023-12-20T14:45:43;5.80;51.30
18317;DHT22;9284;52.298;21.164;2023-12-20T14:48:12;5.80;27.50
18317;DHT22;9284;52.298;21.164;2023-12-20T14:50:40;5.70;13.20
18317;DHT22;9284;52.298;21.164;2023-12-20T14:53:09;5.70;1.00
18317;DHT22;9284;52.298;21.164;2023-12-20T14:55:39;5.70;1.00
18317;DHT22;9284;52.298;21.164;2023-12-20T14:58:07;5.70;1.00
18317;DHT22;9284;52.298;21.164;2023-12-20T15:00:36;5.70;1.00
18317;DHT22;9284;52.298;21.164;2023-12-20T15:03:04;5.60;1.00
18317;DHT22;9284;52.298;21.164;2023-12-20T15:05:34;5.60;1.00
18317;DHT22;9284;52.298;21.164;2023-12-20T15:08:03;5.60;1.00
18317;DHT22;9284;52.298;21.164;2023-12-20T15:10:31;5.60;1.00
18317;DHT22;9284;52.298;21.164;2023-12-20T15:13:01;5.60;1.00
18317;DHT22;9284;52.298;21.164;2023-12-20T15:15:30;5.60;1.00
18317;DHT22;9284;52.298;21.164;2023-12-20T15:18:00;5.50;1.00
18317;DHT22;9284;52.298;21.164;2023-12-20T15:20:30;5.60;1.00
18317;DHT22;9284;52.298;21.164;2023-12-20T15:23:00;5.50;1.00
18317;DHT22;9284;52.298;21.164;2023-12-20T15:25:32;5.50;1.00
18317;DHT22;9284;52.298;21.164;2023-12-20T15:28:01;5.40;1.00
18317;DHT22;9284;52.298;21.164;2023-12-20T15:30:30;5.40;1.00
18317;DHT22;9284;52.298;21.164;2023-12-20T15:32:59;5.40;1.00
18317;DHT22;9284;52.298;21.164;2023-12-20T15:35:32;5.40;1.00
18317;DHT22;9284;52.298;21.164;2023-12-20T15:38:01;5.40;1.00
18317;DHT22;9284;52.298;21.164;2023-12-20T15:40:30;5.40;1.00
18317;DHT22;9284;52.298;21.164;2023-12-20T15:42:58;5.40;1.00
18317;DHT22;9284;52.298;21.164;2023-12-20T15:45:29;5.40;1.00
18317;DHT22;9284;52.298;21.164;2023-12-20T15:47:58;5.40;1.00
18317;DHT22;9284;52.298;21.164;2023-12-20T15:50:26;5.40;99.90
18317;DHT22;9284;52.298;21.164;2023-12-20T15:52:55;5.40;1.00
18317;DHT22;9284;52.298;21.164;2023-12-20T15:55:23;5.40;1.00
18317;DHT22;9284;52.298;21.164;2023-12-20T15:57:51;5.50;1.00
18317;DHT22;9284;52.298;21.164;2023-12-20T16:00:21;5.40;99.90
18317;DHT22;9284;52.298;21.164;2023-12-20T16:02:52;5.30;1.00